createdAt,value
2023-04-09T00:00:10.252Z,102447.34
2023-04-09T00:02:36.721Z,102438.75
2023-04-09T00:05:03.170Z,102438.75
2023-04-09T00:07:29.460Z,102436.16
2023-04-09T00:09:56.382Z,102439.66
2023-04-09T00:12:22.755Z,102434.41
2023-04-09T00:14:49.028Z,102437.16
2023-04-09T00:17:15.704Z,102424.19
2023-04-09T00:19:42.076Z,102426.69
2023-04-09T00:22:08.426Z,102429.03
2023-04-09T00:24:34.735Z,102430.09
2023-04-09T00:27:01.018Z,102430.22
2023-04-09T00:29:27.365Z,102421.78
2023-04-09T00:31:53.664Z,102424.91
2023-04-09T00:34:20.167Z,102425.91
2023-04-09T00:36:46.517Z,102423.66
2023-04-09T00:39:12.828Z,102422.03
2023-04-09T00:41:39.107Z,102424.38
2023-04-09T00:44:05.847Z,102420.19
2023-04-09T00:46:32.656Z,102425.94
2023-04-09T00:48:59.610Z,102426.59
2023-04-09T00:51:26.628Z,102428.44
2023-04-09T00:53:53.405Z,102427.56
2023-04-09T00:56:22.150Z,102433.03
2023-04-09T00:58:48.821Z,102429.34
2023-04-09T01:01:15.846Z,102420.66
2023-04-09T01:03:42.696Z,102421.50
2023-04-09T01:06:17.608Z,102418.75
2023-04-09T01:08:54.370Z,102427.66
2023-04-09T01:11:32.075Z,102425.66
2023-04-09T01:14:08.681Z,102425.09
2023-04-09T01:16:37.736Z,102434.88
2023-04-09T01:19:19.233Z,102428.78
2023-04-09T01:21:46.435Z,102424.78
2023-04-09T01:24:22.975Z,102425.06
2023-04-09T01:27:03.998Z,102424.09
2023-04-09T01:29:45.193Z,102429.00
2023-04-09T01:32:13.587Z,102420.31
2023-04-09T01:34:41.609Z,102424.38
2023-04-09T01:37:09.208Z,102427.84
2023-04-09T01:39:37.600Z,102416.03
2023-04-09T01:42:05.540Z,102412.97
2023-04-09T01:44:32.845Z,102418.06
2023-04-09T01:47:00.343Z,102416.69
2023-04-09T01:49:28.386Z,102412.16
2023-04-09T01:51:54.985Z,102418.38
2023-04-09T01:54:21.387Z,102410.19
2023-04-09T01:56:48.627Z,102424.88
2023-04-09T01:59:15.571Z,102415.09
2023-04-09T02:01:54.595Z,102418.41
2023-04-09T02:04:34.273Z,102406.38
2023-04-09T02:07:30.106Z,102409.91
2023-04-09T02:09:59.420Z,102405.56
2023-04-09T02:12:26.384Z,102410.81
2023-04-09T02:14:53.649Z,102415.16
2023-04-09T02:17:20.186Z,102415.84
2023-04-09T02:19:47.772Z,102409.72
2023-04-09T02:22:15.349Z,102413.22
2023-04-09T02:24:41.699Z,102407.16
2023-04-09T02:27:08.673Z,102407.75
2023-04-09T02:29:35.073Z,102409.63
2023-04-09T02:32:01.496Z,102402.66
2023-04-09T02:34:28.202Z,102409.34
2023-04-09T02:36:54.542Z,102403.56
2023-04-09T02:39:20.851Z,102401.72
2023-04-09T02:41:47.158Z,102401.09
2023-04-09T02:44:13.572Z,102396.50
2023-04-09T02:46:41.321Z,102397.97
2023-04-09T02:49:08.163Z,102388.50
2023-04-09T02:51:35.875Z,102388.59
2023-04-09T02:54:02.708Z,102382.72
2023-04-09T02:56:29.074Z,102387.28
2023-04-09T02:58:55.449Z,102379.38
2023-04-09T03:01:21.788Z,102372.63
2023-04-09T03:03:48.324Z,102365.84
2023-04-09T03:06:14.808Z,102364.09
2023-04-09T03:08:41.250Z,102359.09
2023-04-09T03:11:07.732Z,102364.84
2023-04-09T03:13:34.454Z,102365.72
2023-04-09T03:16:00.831Z,102368.16
2023-04-09T03:18:27.235Z,102363.66
2023-04-09T03:20:53.552Z,102364.53
2023-04-09T03:23:19.889Z,102361.78
2023-04-09T03:25:46.240Z,102360.03
2023-04-09T03:28:12.724Z,102362.81
2023-04-09T03:30:39.129Z,102364.78
2023-04-09T03:33:05.696Z,102356.13
2023-04-09T03:35:32.180Z,102362.28
2023-04-09T03:37:58.493Z,102358.50
2023-04-09T03:40:24.812Z,102360.63
2023-04-09T03:42:51.205Z,102364.78
2023-04-09T03:45:17.563Z,102373.50
2023-04-09T03:47:43.952Z,102370.16
2023-04-09T03:50:10.447Z,102370.97
2023-04-09T03:52:36.749Z,102370.13
2023-04-09T03:55:03.446Z,102369.84
2023-04-09T03:57:29.755Z,102369.97
2023-04-09T03:59:56.061Z,102366.66
2023-04-09T04:02:22.548Z,102368.16
2023-04-09T04:04:49.173Z,102371.78
2023-04-09T04:07:15.769Z,102375.38
2023-04-09T04:09:42.164Z,102372.53
2023-04-09T04:12:08.523Z,102370.13
2023-04-09T04:14:35.407Z,102371.09
2023-04-09T04:17:01.740Z,102374.44
2023-04-09T04:19:28.130Z,102383.94
2023-04-09T04:21:54.429Z,102380.38
2023-04-09T04:24:20.703Z,102384.84
2023-04-09T04:26:46.969Z,102383.09
2023-04-09T04:29:13.237Z,102393.94
2023-04-09T04:31:39.570Z,102389.66
2023-04-09T04:34:05.990Z,102395.06
2023-04-09T04:36:32.321Z,102388.31
2023-04-09T04:38:58.874Z,102389.97
2023-04-09T04:41:25.228Z,102387.03
2023-04-09T04:43:51.541Z,102388.94
2023-04-09T04:46:19.031Z,102383.94
2023-04-09T04:48:45.450Z,102392.69
2023-04-09T04:51:11.747Z,102387.78
2023-04-09T04:53:38.088Z,102385.16
2023-04-09T04:56:04.693Z,102381.16
2023-04-09T04:58:31.396Z,102377.91
2023-04-09T05:00:57.951Z,102384.63
2023-04-09T05:03:27.018Z,102377.53
2023-04-09T05:05:54.006Z,102383.56
2023-04-09T05:08:20.590Z,102391.38
2023-04-09T05:10:46.942Z,102385.50
2023-04-09T05:13:13.261Z,102388.06
2023-04-09T05:15:40.593Z,102388.06
2023-04-09T05:18:07.798Z,102390.47
2023-04-09T05:20:34.794Z,102393.25
2023-04-09T05:23:01.151Z,102398.34
2023-04-09T05:25:27.430Z,102398.50
2023-04-09T05:27:53.826Z,102398.50
2023-04-09T05:30:20.343Z,102392.53
2023-04-09T05:32:46.714Z,102397.63
2023-04-09T05:35:13.185Z,102397.78
2023-04-09T05:37:39.498Z,102404.63
2023-04-09T05:40:06.718Z,102397.78
2023-04-09T05:42:33.059Z,102396.81
2023-04-09T05:44:59.414Z,102400.47
2023-04-09T05:47:25.790Z,102399.44
2023-04-09T05:49:52.315Z,102395.22
2023-04-09T05:52:19.653Z,102395.75
2023-04-09T05:54:46.140Z,102405.84
2023-04-09T05:57:12.539Z,102400.66
2023-04-09T05:59:38.991Z,102405.91
2023-04-09T06:02:05.489Z,102402.88
2023-04-09T06:04:31.971Z,102397.72
2023-04-09T06:07:00.181Z,102402.91
2023-04-09T06:09:27.731Z,102414.19
2023-04-09T06:11:54.211Z,102406.25
2023-04-09T06:14:20.565Z,102406.34
2023-04-09T06:16:46.862Z,102407.16
2023-04-09T06:19:15.532Z,102414.19
2023-04-09T06:21:42.311Z,102404.81
2023-04-09T06:24:08.668Z,102411.81
2023-04-09T06:26:35.260Z,102410.59
2023-04-09T06:29:01.573Z,102410.41
2023-04-09T06:31:27.899Z,102418.22
2023-04-09T06:33:54.548Z,102422.84
2023-04-09T06:36:21.439Z,102416.03
2023-04-09T06:38:47.748Z,102414.53
2023-04-09T06:41:14.772Z,102419.72
2023-04-09T06:43:41.344Z,102421.44
2023-04-09T06:46:08.036Z,102425.84
2023-04-09T06:48:34.749Z,102424.00
2023-04-09T06:51:01.204Z,102433.59
2023-04-09T06:53:27.568Z,102436.09
2023-04-09T06:55:55.446Z,102434.88
2023-04-09T06:58:22.954Z,102440.97
2023-04-09T07:00:49.395Z,102435.94
2023-04-09T07:03:15.868Z,102452.41
2023-04-09T07:05:42.245Z,102449.03
2023-04-09T07:08:08.633Z,102448.81
2023-04-09T07:10:35.116Z,102449.03
2023-04-09T07:13:01.542Z,102447.25
2023-04-09T07:15:28.020Z,102451.72
2023-04-09T07:17:54.487Z,102439.81
2023-04-09T07:20:20.871Z,102438.94
2023-04-09T07:22:47.365Z,102433.13
2023-04-09T07:25:14.420Z,102433.94
2023-04-09T07:27:41.020Z,102438.72
2023-04-09T07:30:07.963Z,102437.88
2023-04-09T07:32:34.438Z,102438.13
2023-04-09T07:35:02.236Z,102442.50
2023-04-09T07:37:28.532Z,102437.47
2023-04-09T07:39:54.929Z,102441.84
2023-04-09T07:42:21.702Z,102439.09
2023-04-09T07:44:48.611Z,102447.84
2023-04-09T07:47:15.463Z,102451.53
2023-04-09T07:49:42.076Z,102454.28
2023-04-09T07:52:08.539Z,102454.09
2023-04-09T07:54:35.661Z,102452.25
2023-04-09T07:57:02.605Z,102447.56
2023-04-09T07:59:29.591Z,102451.22
2023-04-09T08:01:56.420Z,102450.72
2023-04-09T08:04:23.063Z,102447.47
2023-04-09T08:06:53.459Z,102436.22
2023-04-09T08:09:21.155Z,102445.78
2023-04-09T08:11:48.606Z,102448.28
2023-04-09T08:14:17.233Z,102451.03
2023-04-09T08:16:46.137Z,102451.19
2023-04-09T08:19:14.666Z,102452.50
2023-04-09T08:21:44.419Z,102446.34
2023-04-09T08:24:11.829Z,102447.44
2023-04-09T08:26:39.322Z,102445.22
2023-04-09T08:29:05.913Z,102446.22
2023-04-09T08:31:32.279Z,102452.19
2023-04-09T08:33:58.678Z,102450.72
2023-04-09T08:36:26.294Z,102450.63
2023-04-09T08:38:55.629Z,102446.50
2023-04-09T08:41:24.726Z,102455.25
2023-04-09T08:43:58.240Z,102455.31
2023-04-09T08:46:26.093Z,102454.53
2023-04-09T08:48:53.257Z,102460.44
2023-04-09T08:51:21.991Z,102447.03
2023-04-09T08:54:03.957Z,102454.16
2023-04-09T08:56:31.388Z,102452.56
2023-04-09T08:58:57.724Z,102459.22
2023-04-09T09:01:29.169Z,102455.41
2023-04-09T09:04:07.000Z,102454.69
2023-04-09T09:06:35.782Z,102462.53
2023-04-09T09:09:06.544Z,102458.38
2023-04-09T09:11:34.972Z,102452.66
2023-04-09T09:14:06.730Z,102459.34
2023-04-09T09:16:45.136Z,102451.91
2023-04-09T09:19:30.792Z,102452.56
2023-04-09T09:21:58.754Z,102449.28
2023-04-09T09:24:25.142Z,102451.25
2023-04-09T09:26:52.371Z,102452.06
2023-04-09T09:29:19.769Z,102448.13
2023-04-09T09:31:51.471Z,102454.72
2023-04-09T09:34:19.178Z,102452.06
2023-04-09T09:36:46.367Z,102442.94
2023-04-09T09:39:13.957Z,102449.97
2023-04-09T09:41:44.126Z,102441.47
2023-04-09T09:44:12.096Z,102435.22
2023-04-09T09:46:42.560Z,102429.53
2023-04-09T09:49:09.539Z,102434.34
2023-04-09T09:51:38.787Z,102440.22
2023-04-09T09:54:07.631Z,102438.41
2023-04-09T09:56:39.496Z,102435.88
2023-04-09T09:59:11.931Z,102436.75
2023-04-09T10:01:38.942Z,102436.09
2023-04-09T10:04:07.297Z,102435.44
2023-04-09T10:06:38.614Z,102437.03
2023-04-09T10:09:06.716Z,102439.66
2023-04-09T10:11:35.180Z,102437.28
2023-04-09T10:14:02.237Z,102432.25
2023-04-09T10:16:28.784Z,102427.06
2023-04-09T10:18:56.268Z,102433.31
2023-04-09T10:21:44.644Z,102430.81
2023-04-09T10:24:11.699Z,102428.09
2023-04-09T10:26:41.544Z,102421.81
2023-04-09T10:29:12.640Z,102424.47
2023-04-09T10:31:52.250Z,102419.41
2023-04-09T10:34:21.599Z,102420.38
2023-04-09T10:37:15.469Z,102419.22
2023-04-09T10:39:45.603Z,102419.22
2023-04-09T10:42:15.210Z,102419.22
2023-04-09T10:44:42.634Z,102418.34
2023-04-09T10:47:10.255Z,102421.00
2023-04-09T10:49:39.022Z,102428.03
2023-04-09T10:52:12.033Z,102418.59
2023-04-09T10:54:40.241Z,102413.53
2023-04-09T10:57:17.694Z,102412.53
2023-04-09T10:59:49.482Z,102412.97
2023-04-09T11:02:28.069Z,102413.03
2023-04-09T11:05:21.609Z,102410.00
2023-04-09T11:08:11.681Z,102409.44
2023-04-09T11:10:40.962Z,102405.38
2023-04-09T11:13:12.452Z,102407.91
2023-04-09T11:15:39.535Z,102410.44
2023-04-09T11:18:13.903Z,102406.75
2023-04-09T11:20:40.728Z,102415.69
2023-04-09T11:23:07.230Z,102415.69
2023-04-09T11:25:34.952Z,102408.16
2023-04-09T11:28:04.134Z,102404.75
2023-04-09T11:30:31.117Z,102408.31
2023-04-09T11:32:57.738Z,102400.75
2023-04-09T11:35:24.116Z,102403.59
2023-04-09T11:37:52.109Z,102404.50
2023-04-09T11:40:26.321Z,102399.38
2023-04-09T11:42:54.500Z,102399.09
2023-04-09T11:45:24.310Z,102397.44
2023-04-09T11:47:51.093Z,102395.94
2023-04-09T11:50:17.889Z,102396.00
2023-04-09T11:52:46.011Z,102387.50
2023-04-09T11:55:22.425Z,102379.72
2023-04-09T11:57:48.769Z,102385.06
2023-04-09T12:00:16.940Z,102380.84
2023-04-09T12:02:46.699Z,102379.25
2023-04-09T12:05:22.037Z,102372.31
2023-04-09T12:07:55.563Z,102379.41
2023-04-09T12:10:27.299Z,102367.44
2023-04-09T12:12:53.617Z,102371.03
2023-04-09T12:15:22.217Z,102369.25
2023-04-09T12:17:50.616Z,102362.38
2023-04-09T12:20:36.636Z,102353.84
2023-04-09T12:23:04.535Z,102353.88
2023-04-09T12:25:32.360Z,102350.66
2023-04-09T12:27:59.251Z,102340.41
2023-04-09T12:30:26.036Z,102340.56
2023-04-09T12:32:53.610Z,102338.94
2023-04-09T12:35:21.135Z,102333.47
2023-04-09T12:37:47.761Z,102329.13
2023-04-09T12:40:14.858Z,102328.47
2023-04-09T12:42:41.946Z,102322.56
2023-04-09T12:45:11.097Z,102317.59
2023-04-09T12:47:37.787Z,102314.09
2023-04-09T12:50:04.502Z,102307.22
2023-04-09T12:52:30.906Z,102310.91
2023-04-09T12:54:57.256Z,102304.06
2023-04-09T12:57:23.663Z,102310.34
2023-04-09T12:59:50.169Z,102302.38
2023-04-09T13:02:16.938Z,102297.28
2023-04-09T13:04:44.102Z,102294.03
2023-04-09T13:07:12.074Z,102294.81
2023-04-09T13:09:38.436Z,102296.72
2023-04-09T13:12:04.767Z,102285.25
2023-04-09T13:14:31.476Z,102286.00
2023-04-09T13:16:57.887Z,102282.53
2023-04-09T13:19:24.243Z,102282.72
2023-04-09T13:21:50.511Z,102276.69
2023-04-09T13:24:17.152Z,102275.03
2023-04-09T13:26:43.507Z,102270.72
2023-04-09T13:29:09.867Z,102268.88
2023-04-09T13:31:36.590Z,102263.56
2023-04-09T13:34:03.452Z,102258.28
2023-04-09T13:36:31.501Z,102267.81
2023-04-09T13:39:04.082Z,102260.94
2023-04-09T13:41:34.132Z,102253.25
2023-04-09T13:44:00.895Z,102259.31
2023-04-09T13:46:27.813Z,102252.41
2023-04-09T13:48:56.996Z,102249.00
2023-04-09T13:51:23.743Z,102248.13
2023-04-09T13:53:50.692Z,102242.03
2023-04-09T13:56:17.093Z,102243.75
2023-04-09T13:58:43.698Z,102239.47
2023-04-09T14:01:11.445Z,102243.00
2023-04-09T14:03:40.937Z,102237.81
2023-04-09T14:06:10.316Z,102244.78
2023-04-09T14:08:36.902Z,102238.63
2023-04-09T14:11:03.427Z,102235.16
2023-04-09T14:13:29.968Z,102235.13
2023-04-09T14:15:57.982Z,102229.06
2023-04-09T14:18:25.564Z,102227.34
2023-04-09T14:20:51.965Z,102223.84
2023-04-09T14:23:18.365Z,102220.34
2023-04-09T14:25:44.724Z,102226.34
2023-04-09T14:28:11.170Z,102220.38
2023-04-09T14:30:37.533Z,102223.88
2023-04-09T14:33:03.905Z,102226.50
2023-04-09T14:35:30.293Z,102226.47
2023-04-09T14:37:56.598Z,102229.97
2023-04-09T14:40:22.985Z,102223.03
2023-04-09T14:42:50.142Z,102227.38
2023-04-09T14:45:16.588Z,102220.41
2023-04-09T14:47:43.203Z,102222.16
2023-04-09T14:50:11.069Z,102220.44
2023-04-09T14:52:37.403Z,102214.34
2023-04-09T14:55:04.227Z,102207.38
2023-04-09T14:57:31.330Z,102200.41
2023-04-09T14:59:57.677Z,102201.28
2023-04-09T15:02:24.168Z,102201.28
2023-04-09T15:04:50.741Z,102199.56
2023-04-09T15:07:17.304Z,102196.06
2023-04-09T15:09:43.628Z,102197.81
2023-04-09T15:12:10.025Z,102192.59
2023-04-09T15:14:36.548Z,102196.94
2023-04-09T15:17:02.938Z,102186.50
2023-04-09T15:19:29.303Z,102186.47
2023-04-09T15:21:56.537Z,102184.72
2023-04-09T15:24:32.183Z,102184.72
2023-04-09T15:26:58.502Z,102177.75
2023-04-09T15:29:25.256Z,102179.50
2023-04-09T15:31:52.836Z,102172.53
2023-04-09T15:34:19.190Z,102176.03
2023-04-09T15:36:46.171Z,102169.94
2023-04-09T15:39:12.498Z,102176.03
2023-04-09T15:41:39.300Z,102180.38
2023-04-09T15:44:05.638Z,102183.00
2023-04-09T15:46:31.966Z,102177.75
2023-04-09T15:48:58.240Z,102181.22
2023-04-09T15:51:24.707Z,102182.94
2023-04-09T15:53:50.998Z,102178.59
2023-04-09T15:56:17.278Z,102184.69
2023-04-09T15:58:46.556Z,102185.53
2023-04-09T16:01:12.909Z,102192.47
2023-04-09T16:03:42.485Z,102188.97
2023-04-09T16:06:12.954Z,102183.72
2023-04-09T16:08:39.515Z,102184.56
2023-04-09T16:11:07.017Z,102182.81
2023-04-09T16:13:34.070Z,102181.94
2023-04-09T16:16:00.590Z,102180.19
2023-04-09T16:18:27.558Z,102186.22
2023-04-09T16:20:56.881Z,102180.16
2023-04-09T16:23:25.327Z,102174.94
2023-04-09T16:25:52.190Z,102173.16
2023-04-09T16:28:21.599Z,102168.75
2023-04-09T16:30:52.113Z,102178.31
2023-04-09T16:33:19.028Z,102173.97
2023-04-09T16:35:45.517Z,102170.44
2023-04-09T16:38:12.605Z,102167.00
2023-04-09T16:40:39.461Z,102162.63
2023-04-09T16:43:05.843Z,102164.31
2023-04-09T16:45:32.198Z,102162.56
2023-04-09T16:47:58.557Z,102159.97
2023-04-09T16:50:25.225Z,102159.97
2023-04-09T16:52:52.189Z,102159.88
2023-04-09T16:55:18.764Z,102158.16
2023-04-09T16:57:45.337Z,102158.97
2023-04-09T17:00:12.790Z,102162.50
2023-04-09T17:02:39.509Z,102158.97
2023-04-09T17:05:06.325Z,102159.81
2023-04-09T17:07:33.012Z,102162.41
2023-04-09T17:09:59.366Z,102162.38
2023-04-09T17:12:26.619Z,102158.91
2023-04-09T17:14:53.011Z,102163.94
2023-04-09T17:17:19.709Z,102174.41
2023-04-09T17:19:46.106Z,102170.91
2023-04-09T17:22:13.812Z,102172.50
2023-04-09T17:24:40.196Z,102176.00
2023-04-09T17:27:07.205Z,102175.84
2023-04-09T17:29:34.294Z,102169.78
2023-04-09T17:32:00.606Z,102167.97
2023-04-09T17:34:27.138Z,102166.28
2023-04-09T17:36:57.181Z,102172.25
2023-04-09T17:39:24.272Z,102173.84
2023-04-09T17:41:53.382Z,102172.06
2023-04-09T17:44:19.733Z,102180.63
2023-04-09T17:46:46.165Z,102182.22
2023-04-09T17:49:12.688Z,102187.34
2023-04-09T17:51:39.319Z,102181.16
2023-04-09T17:54:05.772Z,102181.94
2023-04-09T17:56:35.297Z,102182.63
2023-04-09T17:59:01.986Z,102180.03
2023-04-09T18:01:28.369Z,102185.88
2023-04-09T18:03:56.317Z,102196.34
2023-04-09T18:06:22.774Z,102197.13
2023-04-09T18:08:50.362Z,102193.56
2023-04-09T18:11:18.354Z,102195.03
2023-04-09T18:13:44.682Z,102197.56
2023-04-09T18:16:12.065Z,102205.31
2023-04-09T18:18:38.803Z,102208.66
2023-04-09T18:21:06.116Z,102208.53
2023-04-09T18:23:32.796Z,102210.22
2023-04-09T18:25:59.142Z,102205.78
2023-04-09T18:28:26.059Z,102199.69
2023-04-09T18:30:53.926Z,102205.63
2023-04-09T18:33:20.867Z,102201.31
2023-04-09T18:35:47.204Z,102201.25
2023-04-09T18:38:13.613Z,102194.28
2023-04-09T18:40:42.000Z,102200.25
2023-04-09T18:43:08.533Z,102200.09
2023-04-09T18:45:34.831Z,102205.97
2023-04-09T18:48:01.155Z,102200.69
2023-04-09T18:50:27.498Z,102199.72
2023-04-09T18:52:53.773Z,102216.09
2023-04-09T18:55:20.066Z,102216.09
2023-04-09T18:57:47.106Z,102215.94
2023-04-09T19:00:14.052Z,102226.19
2023-04-09T19:02:40.701Z,102223.47
2023-04-09T19:05:07.634Z,102222.38
2023-04-09T19:07:33.988Z,102221.44
2023-04-09T19:10:00.397Z,102225.78
2023-04-09T19:12:29.514Z,102230.97
2023-04-09T19:14:55.877Z,102233.47
2023-04-09T19:17:22.529Z,102233.47
2023-04-09T19:19:48.972Z,102236.13
2023-04-09T19:22:16.062Z,102247.38
2023-04-09T19:24:45.436Z,102244.78
2023-04-09T19:27:12.281Z,102249.16
2023-04-09T19:29:38.548Z,102243.69
2023-04-09T19:32:05.725Z,102248.06
2023-04-09T19:34:32.118Z,102252.31
2023-04-09T19:36:58.420Z,102238.38
2023-04-09T19:39:24.764Z,102239.09
2023-04-09T19:41:51.293Z,102237.31
2023-04-09T19:44:17.614Z,102237.19
2023-04-09T19:46:43.920Z,102242.38
2023-04-09T19:49:10.487Z,102249.34
2023-04-09T19:51:36.777Z,102245.81
2023-04-09T19:54:03.135Z,102243.81
2023-04-09T19:56:29.412Z,102250.50
2023-04-09T19:58:55.909Z,102252.41
2023-04-09T20:01:22.530Z,102247.09
2023-04-09T20:03:49.343Z,102242.63
2023-04-09T20:06:16.097Z,102242.03
2023-04-09T20:08:42.772Z,102244.53
2023-04-09T20:11:16.214Z,102242.13
2023-04-09T20:13:42.519Z,102245.00
2023-04-09T20:16:08.862Z,102245.16
2023-04-09T20:18:35.405Z,102239.94
2023-04-09T20:21:01.666Z,102244.88
2023-04-09T20:23:27.942Z,102244.84
2023-04-09T20:25:55.050Z,102243.81
2023-04-09T20:28:21.967Z,102247.16
2023-04-09T20:30:48.410Z,102248.06
2023-04-09T20:33:14.684Z,102243.81
2023-04-09T20:35:41.267Z,102240.22
2023-04-09T20:38:07.582Z,102239.13
2023-04-09T20:40:36.268Z,102234.81
2023-04-09T20:43:02.652Z,102231.03
2023-04-09T20:45:28.959Z,102228.53
2023-04-09T20:47:55.989Z,102229.41
2023-04-09T20:50:22.315Z,102228.47
2023-04-09T20:52:49.471Z,102229.94
2023-04-09T20:55:16.234Z,102234.25
2023-04-09T20:57:42.507Z,102229.09
2023-04-09T21:00:10.914Z,102222.88
2023-04-09T21:02:38.722Z,102230.66
2023-04-09T21:05:19.632Z,102225.13
2023-04-09T21:07:48.676Z,102232.66
2023-04-09T21:10:15.385Z,102239.56
2023-04-09T21:12:41.729Z,102233.44
2023-04-09T21:15:08.531Z,102224.03
2023-04-09T21:17:34.965Z,102225.00
2023-04-09T21:20:01.386Z,102211.03
2023-04-09T21:22:27.650Z,102217.00
2023-04-09T21:24:54.202Z,102218.56
2023-04-09T21:27:20.476Z,102216.06
2023-04-09T21:29:46.755Z,102225.50
2023-04-09T21:32:13.248Z,102220.44
2023-04-09T21:34:39.541Z,102220.50
2023-04-09T21:37:06.261Z,102216.22
2023-04-09T21:39:32.579Z,102219.66
2023-04-09T21:41:58.944Z,102212.16
2023-04-09T21:44:25.282Z,102211.13
2023-04-09T21:46:52.100Z,102221.03
2023-04-09T21:49:18.388Z,102214.13
2023-04-09T21:51:47.555Z,102217.47
2023-04-09T21:54:13.941Z,102220.84
2023-04-09T21:56:40.419Z,102216.47
2023-04-09T21:59:06.971Z,102225.41
2023-04-09T22:01:34.670Z,102219.31
2023-04-09T22:04:01.854Z,102230.56
2023-04-09T22:06:29.145Z,102223.69
2023-04-09T22:08:57.532Z,102225.47
2023-04-09T22:11:28.388Z,102227.41
2023-04-09T22:13:56.476Z,102219.66
2023-04-09T22:16:23.236Z,102218.09
2023-04-09T22:18:49.908Z,102218.13
2023-04-09T22:21:16.916Z,102211.44
2023-04-09T22:23:43.615Z,102208.78
2023-04-09T22:26:09.944Z,102212.13
2023-04-09T22:28:36.411Z,102213.84
2023-04-09T22:31:03.447Z,102209.72
2023-04-09T22:33:29.814Z,102204.59
2023-04-09T22:35:56.149Z,102202.13
2023-04-09T22:38:22.777Z,102202.09
2023-04-09T22:40:49.545Z,102209.00
2023-04-09T22:43:16.949Z,102205.50
2023-04-09T22:45:50.352Z,102204.63
2023-04-09T22:48:16.693Z,102203.81
2023-04-09T22:50:44.264Z,102201.88
2023-04-09T22:53:10.692Z,102212.13
2023-04-09T22:55:38.113Z,102206.25
2023-04-09T22:58:04.393Z,102202.75
2023-04-09T23:00:30.885Z,102197.59
2023-04-09T23:02:57.295Z,102191.53
2023-04-09T23:05:23.715Z,102200.25
2023-04-09T23:07:51.091Z,102196.84
2023-04-09T23:10:17.523Z,102200.25
2023-04-09T23:12:43.964Z,102200.16
2023-04-09T23:15:11.191Z,102196.69
2023-04-09T23:17:37.674Z,102195.84
2023-04-09T23:20:06.616Z,102195.81
2023-04-09T23:22:32.922Z,102197.50
2023-04-09T23:24:59.213Z,102202.69
2023-04-09T23:27:28.532Z,102200.78
2023-04-09T23:29:58.120Z,102199.13
2023-04-09T23:32:24.582Z,102196.53
2023-04-09T23:34:51.156Z,102200.88
2023-04-09T23:37:17.523Z,102197.50
2023-04-09T23:39:43.858Z,102199.31
2023-04-09T23:42:10.431Z,102193.19
2023-04-09T23:44:36.738Z,102198.28
2023-04-09T23:47:05.671Z,102199.28
2023-04-09T23:49:32.144Z,102193.34
2023-04-09T23:51:58.649Z,102195.06
2023-04-09T23:54:24.919Z,102194.34
2023-04-09T23:56:51.589Z,102199.34
2023-04-09T23:59:17.887Z,102187.00
